Time;durP1;ratioP1;P1;durP2;ratioP2;P2;SDS_P1;SDS_P2;PMS_P1;PMS_P2;Temp;Humidity;BMP_temperature;BMP_pressure;BME280_temperature;BME280_humidity;BME280_pressure;Samples;Min_cycle;Max_cycle;Signal;HPM_P1;HPM_P2
2023/08/03 00:00:13;;;;;;;7.68;2.60;;;18.40;99.90;;;;;;5074617;28;20052;-66
2023/08/03 00:02:39;;;;;;;12.68;2.38;;;18.40;99.90;;;;;;5074460;28;20067;-66
2023/08/03 00:05:05;;;;;;;7.95;1.98;;;18.30;99.90;;;;;;5074452;28;20036;-66
2023/08/03 00:07:34;;;;;;;6.90;1.83;;;18.40;99.90;;;;;;5074522;28;20039;-66
2023/08/03 00:10:00;;;;;;;11.00;2.45;;;18.30;99.90;;;;;;5074382;28;20068;-66
2023/08/03 00:12:26;;;;;;;8.23;2.55;;;18.30;99.90;;;;;;5074610;28;20025;-65
2023/08/03 00:14:52;;;;;;;7.03;1.92;;;18.30;99.90;;;;;;5074300;28;20109;-66
2023/08/03 00:17:18;;;;;;;7.45;2.47;;;18.30;99.90;;;;;;5074229;28;20021;-66
2023/08/03 00:19:44;;;;;;;6.40;2.78;;;18.30;99.90;;;;;;5074114;28;20377;-66
2023/08/03 00:22:10;;;;;;;11.77;3.47;;;18.30;99.90;;;;;;5074035;28;20025;-65
2023/08/03 00:24:36;;;;;;;11.35;3.05;;;18.30;99.90;;;;;;5074094;28;20021;-65
2023/08/03 00:27:02;;;;;;;12.40;3.25;;;18.30;99.90;;;;;;5073864;28;20499;-66
2023/08/03 00:29:27;;;;;;;16.80;3.72;;;18.30;99.90;;;;;;5074089;28;20033;-66
2023/08/03 00:31:53;;;;;;;17.83;3.80;;;18.30;99.90;;;;;;5073758;28;20028;-66
2023/08/03 00:34:18;;;;;;;13.23;3.70;;;18.30;99.90;;;;;;5074045;28;20490;-66
2023/08/03 00:36:44;;;;;;;16.85;4.03;;;18.30;99.90;;;;;;5073536;28;20052;-66
2023/08/03 00:39:10;;;;;;;21.63;3.60;;;18.40;99.90;;;;;;5073918;28;20476;-66
2023/08/03 00:41:36;;;;;;;17.80;4.10;;;18.40;99.90;;;;;;5073587;28;20024;-67
2023/08/03 00:44:01;;;;;;;16.05;4.15;;;18.40;99.90;;;;;;5073896;28;20460;-66
2023/08/03 00:46:27;;;;;;;19.25;4.38;;;18.50;99.90;;;;;;5073626;28;20021;-66
2023/08/03 00:48:53;;;;;;;20.55;4.30;;;18.30;99.90;;;;;;5073184;28;20188;-67
2023/08/03 00:51:18;;;;;;;22.05;4.28;;;18.40;99.90;;;;;;5073201;28;20041;-66
2023/08/03 00:53:45;;;;;;;13.65;4.30;;;18.30;99.90;;;;;;5087556;28;20032;-66
2023/08/03 00:56:12;;;;;;;19.63;4.60;;;18.30;99.90;;;;;;5073718;28;20036;-66
2023/08/03 00:58:39;;;;;;;25.67;5.30;;;18.30;99.90;;;;;;5072659;28;20089;-66
2023/08/03 01:01:05;;;;;;;21.13;5.80;;;18.30;99.90;;;;;;5073431;28;20027;-65
2023/08/03 01:03:31;;;;;;;18.67;4.80;;;18.30;99.90;;;;;;5073437;28;20046;-66
2023/08/03 01:05:57;;;;;;;23.10;5.03;;;18.20;99.90;;;;;;5073187;28;20465;-66
2023/08/03 01:08:23;;;;;;;17.52;4.57;;;18.30;99.90;;;;;;5073309;28;20033;-66
2023/08/03 01:10:49;;;;;;;21.67;5.20;;;18.30;99.90;;;;;;5073377;28;20021;-65
2023/08/03 01:13:15;;;;;;;21.38;5.72;;;18.30;99.90;;;;;;5073251;28;20380;-65
2023/08/03 01:15:41;;;;;;;17.23;4.35;;;18.20;99.90;;;;;;5073202;28;20027;-66
2023/08/03 01:18:06;;;;;;;19.05;4.32;;;18.30;99.90;;;;;;5088653;28;20116;-65
2023/08/03 01:20:35;;;;;;;16.85;4.00;;;18.30;99.90;;;;;;5073023;28;20052;-65
2023/08/03 01:23:04;;;;;;;20.05;4.68;;;18.30;99.90;;;;;;5073127;28;20024;-66
2023/08/03 01:25:31;;;;;;;16.60;4.07;;;18.30;99.90;;;;;;5073176;28;20024;-66
2023/08/03 01:27:56;;;;;;;23.10;3.92;;;18.30;99.90;;;;;;5088541;28;20028;-66
2023/08/03 01:30:22;;;;;;;21.33;4.65;;;18.40;99.90;;;;;;5088694;28;20526;-66
2023/08/03 01:32:48;;;;;;;20.27;4.40;;;18.40;99.90;;;;;;5073165;28;20027;-65
2023/08/03 01:35:14;;;;;;;20.42;4.30;;;18.30;99.90;;;;;;5072959;28;20028;-65
2023/08/03 01:37:40;;;;;;;16.63;4.68;;;18.40;99.90;;;;;;5072884;28;20016;-65
2023/08/03 01:40:06;;;;;;;22.27;4.65;;;18.30;99.90;;;;;;5073076;28;20032;-65
2023/08/03 01:42:31;;;;;;;27.80;5.05;;;18.40;99.90;;;;;;5072919;28;20108;-66
2023/08/03 01:44:58;;;;;;;18.48;4.35;;;18.30;99.90;;;;;;5072897;28;20530;-66
2023/08/03 01:47:24;;;;;;;19.63;5.00;;;18.30;99.90;;;;;;5072874;28;20033;-65
2023/08/03 01:49:49;;;;;;;19.85;5.05;;;18.30;99.90;;;;;;5072519;28;20098;-66
2023/08/03 01:52:15;;;;;;;22.88;6.18;;;18.30;99.90;;;;;;5072841;28;20031;-65
2023/08/03 01:54:40;;;;;;;17.83;4.45;;;18.20;99.90;;;;;;5072868;28;20029;-65
2023/08/03 01:57:06;;;;;;;20.38;4.95;;;18.20;99.90;;;;;;5072878;28;20017;-65
2023/08/03 01:59:32;;;;;;;18.23;4.28;;;18.10;99.90;;;;;;5072776;28;20032;-65
2023/08/03 02:01:57;;;;;;;18.77;4.50;;;18.10;99.90;;;;;;5072811;28;20031;-65
2023/08/03 02:04:23;;;;;;;21.83;4.65;;;18.10;99.90;;;;;;5072457;28;20465;-66
2023/08/03 02:06:51;;;;;;;20.40;5.03;;;18.10;99.90;;;;;;5072662;28;20041;-65
2023/08/03 02:09:17;;;;;;;21.20;4.50;;;18.10;99.90;;;;;;5072698;28;20028;-65
2023/08/03 02:11:44;;;;;;;17.15;4.68;;;18.10;99.90;;;;;;5072847;28;20036;-65
2023/08/03 02:14:09;;;;;;;18.05;4.55;;;18.10;99.90;;;;;;5072637;28;20469;-65
2023/08/03 02:16:35;;;;;;;14.98;4.07;;;18.00;99.90;;;;;;5075816;28;20028;-65
2023/08/03 02:19:00;;;;;;;18.45;4.57;;;18.00;99.90;;;;;;5076059;28;20032;-65
2023/08/03 02:21:26;;;;;;;16.58;4.53;;;18.10;99.90;;;;;;5076662;28;20033;-65
2023/08/03 02:23:53;;;;;;;18.63;4.40;;;18.10;99.90;;;;;;5092029;28;20378;-65
2023/08/03 02:26:19;;;;;;;16.35;4.40;;;18.20;99.90;;;;;;5076541;28;20159;-65
2023/08/03 02:28:45;;;;;;;18.95;4.90;;;18.10;99.90;;;;;;5076212;28;20128;-65
2023/08/03 02:31:10;;;;;;;20.73;4.45;;;18.20;99.90;;;;;;5076309;28;20029;-65
2023/08/03 02:33:36;;;;;;;17.45;3.83;;;18.20;99.90;;;;;;5075909;28;20066;-65
2023/08/03 02:36:01;;;;;;;17.00;4.43;;;18.20;99.90;;;;;;5076378;28;20380;-65
2023/08/03 02:38:27;;;;;;;24.83;4.90;;;18.20;99.90;;;;;;5076190;28;20472;-65
2023/08/03 02:40:53;;;;;;;15.40;4.22;;;18.10;99.90;;;;;;5075989;28;20063;-67
2023/08/03 02:43:18;;;;;;;18.30;4.53;;;18.10;99.90;;;;;;5076029;28;20126;-65
2023/08/03 02:45:44;;;;;;;16.73;4.60;;;18.00;99.90;;;;;;5076240;28;20016;-66
2023/08/03 02:48:10;;;;;;;15.40;4.22;;;18.00;99.90;;;;;;5075442;28;20040;-66
2023/08/03 02:50:35;;;;;;;14.25;4.15;;;18.00;99.90;;;;;;5075898;28;20472;-66
2023/08/03 02:53:01;;;;;;;16.65;4.05;;;17.90;99.90;;;;;;5075801;28;20373;-66
2023/08/03 02:55:26;;;;;;;15.38;3.58;;;17.90;99.90;;;;;;5075862;28;20025;-65
2023/08/03 02:57:52;;;;;;;18.23;4.72;;;18.00;99.90;;;;;;5075650;28;20066;-66
2023/08/03 03:00:17;;;;;;;10.43;2.83;;;17.90;99.90;;;;;;5070008;28;20037;-65
2023/08/03 03:02:43;;;;;;;10.02;3.35;;;18.00;99.90;;;;;;5075271;28;20350;-66
2023/08/03 03:05:09;;;;;;;6.70;1.77;;;18.00;99.90;;;;;;5069967;28;20070;-64
2023/08/03 03:07:35;;;;;;;5.78;1.92;;;18.00;99.90;;;;;;5075541;28;20020;-64
2023/08/03 03:10:02;;;;;;;5.15;1.27;;;18.00;99.90;;;;;;5074903;28;20072;-66
2023/08/03 03:12:28;;;;;;;5.45;1.48;;;18.00;99.90;;;;;;5074000;28;20094;-66
2023/08/03 03:14:53;;;;;;;4.93;1.42;;;18.00;99.90;;;;;;5074848;28;20481;-65
2023/08/03 03:17:19;;;;;;;6.47;1.70;;;17.90;99.90;;;;;;5075144;28;20042;-67
2023/08/03 03:19:44;;;;;;;7.45;2.42;;;17.80;99.90;;;;;;5075171;28;20063;-66
2023/08/03 03:22:11;;;;;;;8.25;2.00;;;17.80;99.90;;;;;;5073990;28;20753;-66
2023/08/03 03:24:36;;;;;;;8.13;2.97;;;17.80;99.90;;;;;;5074887;28;20021;-66
2023/08/03 03:27:02;;;;;;;7.88;2.55;;;17.80;99.90;;;;;;5073354;28;20086;-67
2023/08/03 03:29:28;;;;;;;6.80;2.55;;;17.80;99.90;;;;;;5075194;28;20039;-66
2023/08/03 03:31:53;;;;;;;9.88;2.63;;;17.90;99.90;;;;;;5074810;28;20021;-66
2023/08/03 03:34:19;;;;;;;7.95;2.50;;;17.90;99.90;;;;;;5073659;28;20480;-66
2023/08/03 03:36:44;;;;;;;6.97;2.40;;;17.80;99.90;;;;;;5073271;28;20032;-66
2023/08/03 03:39:10;;;;;;;7.47;2.60;;;17.90;99.90;;;;;;5072838;28;20025;-67
2023/08/03 03:41:36;;;;;;;5.53;2.10;;;17.80;99.90;;;;;;5074767;28;20456;-67
2023/08/03 03:44:01;;;;;;;5.07;2.10;;;17.90;99.90;;;;;;5074455;28;20071;-67
2023/08/03 03:46:27;;;;;;;8.90;2.63;;;17.90;99.90;;;;;;5073433;28;20024;-67
2023/08/03 03:48:52;;;;;;;7.13;2.13;;;17.80;99.90;;;;;;5072908;28;20037;-66
2023/08/03 03:51:20;;;;;;;7.65;2.05;;;17.70;99.90;;;;;;5074448;28;20120;-66
2023/08/03 03:53:45;;;;;;;6.72;2.22;;;17.90;99.90;;;;;;5074743;28;20024;-66
2023/08/03 03:56:11;;;;;;;8.10;2.20;;;17.80;99.90;;;;;;5074611;28;20487;-66
2023/08/03 03:58:36;;;;;;;5.80;1.85;;;17.70;99.90;;;;;;5054665;28;20025;-67
2023/08/03 04:01:02;;;;;;;7.00;2.33;;;17.70;99.90;;;;;;5054789;28;20052;-65
2023/08/03 04:03:28;;;;;;;7.22;1.90;;;17.70;99.90;;;;;;5074531;28;20025;-66
2023/08/03 04:05:53;;;;;;;6.97;1.50;;;17.70;99.90;;;;;;5074160;28;20031;-66
2023/08/03 04:08:19;;;;;;;4.10;1.50;;;17.70;99.90;;;;;;5074224;28;20039;-66
2023/08/03 04:10:45;;;;;;;5.50;1.52;;;17.70;99.90;;;;;;5073768;28;20146;-65
2023/08/03 04:13:10;;;;;;;4.20;1.33;;;17.70;99.90;;;;;;5074168;28;20036;-66
2023/08/03 04:15:36;;;;;;;2.50;1.40;;;17.70;99.90;;;;;;5073913;28;20024;-66
2023/08/03 04:18:01;;;;;;;6.47;1.83;;;17.60;99.90;;;;;;5073447;28;20025;-66
2023/08/03 04:20:27;;;;;;;3.30;1.65;;;17.60;99.90;;;;;;5074075;28;20028;-66
2023/08/03 04:22:52;;;;;;;3.03;1.67;;;17.60;99.90;;;;;;5074254;28;20466;-66
2023/08/03 04:25:18;;;;;;;6.22;2.30;;;17.50;99.90;;;;;;5073794;28;20068;-66
2023/08/03 04:27:44;;;;;;;4.28;2.17;;;17.50;99.90;;;;;;5073781;28;20142;-66
2023/08/03 04:30:11;;;;;;;6.40;2.63;;;17.50;99.90;;;;;;5059989;28;20119;-66
2023/08/03 04:32:36;;;;;;;10.52;3.70;;;17.50;99.90;;;;;;5073246;28;20013;-66
2023/08/03 04:35:03;;;;;;;9.07;4.63;;;17.50;99.90;;;;;;5071748;28;20108;-66
2023/08/03 04:37:29;;;;;;;7.13;4.20;;;17.50;99.90;;;;;;5073653;28;20020;-66
2023/08/03 04:39:55;;;;;;;10.68;5.05;;;17.50;99.90;;;;;;5073510;28;20059;-66
2023/08/03 04:42:20;;;;;;;7.95;4.10;;;17.50;99.90;;;;;;5073682;28;20056;-66
2023/08/03 04:44:46;;;;;;;6.55;3.08;;;17.50;99.90;;;;;;5073701;28;20031;-65
2023/08/03 04:47:11;;;;;;;7.75;2.75;;;17.40;99.90;;;;;;5073356;28;20040;-65
2023/08/03 04:49:37;;;;;;;6.97;2.17;;;17.40;99.90;;;;;;5073421;28;20040;-65
2023/08/03 04:52:03;;;;;;;9.07;2.50;;;17.50;99.90;;;;;;5071240;28;20020;-66
2023/08/03 04:54:28;;;;;;;7.40;2.00;;;17.60;99.90;;;;;;5073591;28;20108;-66
2023/08/03 04:56:54;;;;;;;9.25;2.20;;;17.50;99.90;;;;;;5073375;28;20066;-65
2023/08/03 04:59:19;;;;;;;10.68;1.73;;;17.60;99.90;;;;;;5072330;28;20370;-65
2023/08/03 05:01:45;;;;;;;8.05;1.38;;;17.60;99.90;;;;;;5072842;28;20056;-66
2023/08/03 05:04:10;;;;;;;11.55;2.70;;;17.50;99.90;;;;;;5073234;28;20031;-66
2023/08/03 05:06:36;;;;;;;6.43;1.75;;;17.50;99.90;;;;;;5071496;28;20537;-65
2023/08/03 05:09:02;;;;;;;8.00;2.08;;;17.50;99.90;;;;;;5073212;28;20029;-65
2023/08/03 05:11:27;;;;;;;7.25;2.17;;;17.60;99.90;;;;;;5073309;28;20107;-65
2023/08/03 05:13:53;;;;;;;9.82;3.30;;;17.50;99.90;;;;;;5072897;28;20465;-65
2023/08/03 05:16:24;;;;;;;12.43;3.28;;;17.50;99.90;;;;;;5073077;28;20029;-65
2023/08/03 05:18:50;;;;;;;11.55;3.22;;;17.50;99.90;;;;;;5073248;28;20403;-65
2023/08/03 05:21:15;;;;;;;9.43;3.08;;;17.50;99.90;;;;;;5071610;28;20078;-65
2023/08/03 05:23:42;;;;;;;11.75;3.72;;;17.50;99.90;;;;;;5073069;28;20469;-65
2023/08/03 05:26:07;;;;;;;10.75;3.53;;;17.50;99.90;;;;;;5073169;28;20021;-65
2023/08/03 05:28:33;;;;;;;17.40;4.25;;;17.50;99.90;;;;;;5071668;28;20032;-65
2023/08/03 05:30:58;;;;;;;10.80;3.83;;;17.50;99.90;;;;;;5073280;28;20483;-66
2023/08/03 05:33:25;;;;;;;12.40;3.17;;;17.60;99.90;;;;;;5072340;28;20041;-65
2023/08/03 05:35:51;;;;;;;9.27;2.50;;;17.60;99.90;;;;;;5073103;28;20024;-65
2023/08/03 05:38:17;;;;;;;10.63;2.97;;;17.50;99.90;;;;;;5071871;28;20037;-66
2023/08/03 05:40:42;;;;;;;12.82;3.40;;;17.60;99.90;;;;;;5073042;28;20035;-65
2023/08/03 05:43:13;;;;;;;12.05;3.42;;;17.60;99.90;;;;;;5072535;28;20025;-65
2023/08/03 05:45:50;;;;;;;16.10;3.55;;;17.60;99.90;;;;;;5073108;28;20044;-66
2023/08/03 05:48:20;;;;;;;12.45;3.60;;;17.50;99.90;;;;;;5071544;28;20467;-65
2023/08/03 05:50:51;;;;;;;14.68;3.78;;;17.50;99.90;;;;;;5072123;28;20031;-65
2023/08/03 05:53:17;;;;;;;11.73;3.33;;;17.50;99.90;;;;;;5075342;28;20473;-65
2023/08/03 05:55:44;;;;;;;11.18;3.10;;;17.50;99.90;;;;;;5073349;28;20035;-65
2023/08/03 05:58:19;;;;;;;11.30;3.05;;;17.50;99.90;;;;;;5076683;28;20089;-65
2023/08/03 06:00:49;;;;;;;12.95;3.20;;;17.50;99.90;;;;;;5075744;28;20023;-65
2023/08/03 06:03:17;;;;;;;13.45;3.00;;;17.50;99.90;;;;;;5076712;28;20387;-66
2023/08/03 06:05:46;;;;;;;9.95;2.42;;;17.50;99.90;;;;;;5074975;28;20134;-65
2023/08/03 06:08:15;;;;;;;11.40;3.13;;;17.50;99.90;;;;;;5076257;28;20028;-65
2023/08/03 06:10:41;;;;;;;9.10;3.15;;;17.50;99.90;;;;;;5075472;28;20032;-66
2023/08/03 06:13:12;;;;;;;10.48;3.17;;;17.60;99.90;;;;;;5075543;28;20055;-65
2023/08/03 06:15:39;;;;;;;16.25;4.32;;;17.60;99.90;;;;;;5076500;28;20024;-65
2023/08/03 06:18:09;;;;;;;13.48;3.50;;;17.60;99.90;;;;;;5075545;28;20029;-65
2023/08/03 06:20:35;;;;;;;10.32;3.10;;;17.60;99.90;;;;;;5076473;28;20449;-66
2023/08/03 06:23:03;;;;;;;17.63;3.80;;;17.60;99.90;;;;;;5076545;28;20031;-65
2023/08/03 06:25:28;;;;;;;12.25;3.80;;;17.60;99.90;;;;;;5076174;28;20020;-66
2023/08/03 06:27:55;;;;;;;12.68;3.40;;;17.60;99.90;;;;;;5075086;28;20040;-66
2023/08/03 06:30:21;;;;;;;13.38;3.90;;;17.60;99.90;;;;;;5076316;28;20063;-65
2023/08/03 06:32:46;;;;;;;10.45;3.30;;;17.60;99.90;;;;;;5076400;28;20067;-65
2023/08/03 06:35:34;;;;;;;14.38;3.63;;;17.60;99.90;;;;;;5075921;28;20412;-65
2023/08/03 06:38:00;;;;;;;16.20;3.95;;;17.60;99.90;;;;;;5076213;28;20041;-65
2023/08/03 06:40:26;;;;;;;9.88;3.13;;;17.60;99.90;;;;;;5074746;28;20070;-65
2023/08/03 06:42:52;;;;;;;12.45;4.15;;;17.50;99.90;;;;;;5076103;28;20032;-66
2023/08/03 06:45:17;;;;;;;13.38;3.25;;;17.60;99.90;;;;;;5076086;28;20074;-66
2023/08/03 06:47:43;;;;;;;13.40;3.58;;;17.60;99.90;;;;;;5075852;28;20497;-66
2023/08/03 06:50:09;;;;;;;16.20;4.15;;;17.60;99.90;;;;;;5070433;28;20102;-65
2023/08/03 06:52:35;;;;;;;11.43;3.90;;;17.50;99.90;;;;;;5055892;28;20017;-65
2023/08/03 06:55:01;;;;;;;9.55;3.42;;;17.50;99.90;;;;;;5062249;28;20024;-65
2023/08/03 06:57:26;;;;;;;10.68;4.20;;;17.50;99.90;;;;;;5075804;28;20146;-65
2023/08/03 06:59:55;;;;;;;13.25;4.20;;;17.50;99.90;;;;;;5074757;28;20029;-65
2023/08/03 07:02:21;;;;;;;10.57;3.10;;;17.40;99.90;;;;;;5075602;28;20021;-67
2023/08/03 07:04:47;;;;;;;11.32;2.60;;;17.50;99.90;;;;;;5075536;28;20035;-65
2023/08/03 07:07:14;;;;;;;13.27;3.17;;;17.40;99.90;;;;;;5075693;28;20025;-65
2023/08/03 07:09:40;;;;;;;9.50;2.83;;;17.40;99.90;;;;;;5074004;28;20044;-66
2023/08/03 07:12:09;;;;;;;13.93;4.00;;;17.50;99.90;;;;;;5074748;28;20020;-66
2023/08/03 07:14:35;;;;;;;13.02;4.70;;;17.40;99.90;;;;;;5069925;28;20021;-66
2023/08/03 07:17:00;;;;;;;13.52;3.45;;;17.50;99.90;;;;;;5055391;28;20033;-65
2023/08/03 07:19:26;;;;;;;12.02;3.45;;;17.40;99.90;;;;;;5067753;28;20039;-66
2023/08/03 07:21:52;;;;;;;11.90;2.90;;;17.40;99.90;;;;;;5074421;28;20020;-66
2023/08/03 07:24:17;;;;;;;16.05;3.45;;;17.50;99.90;;;;;;5072478;28;20108;-66
2023/08/03 07:26:43;;;;;;;13.43;3.22;;;17.50;99.90;;;;;;5073560;28;20377;-64
2023/08/03 07:29:08;;;;;;;10.27;2.92;;;17.60;99.90;;;;;;5075171;28;20040;-65
2023/08/03 07:31:34;;;;;;;13.77;3.60;;;17.60;99.90;;;;;;5075234;28;20075;-66
2023/08/03 07:34:00;;;;;;;13.88;2.90;;;17.70;99.90;;;;;;5075203;28;20040;-65
2023/08/03 07:36:25;;;;;;;14.20;3.72;;;17.70;99.90;;;;;;5070450;28;20029;-65
2023/08/03 07:38:52;;;;;;;14.18;3.55;;;17.80;99.90;;;;;;5069920;28;20069;-64
2023/08/03 07:41:18;;;;;;;13.13;3.50;;;17.90;99.90;;;;;;5064906;28;20040;-65
2023/08/03 07:43:44;;;;;;;13.85;3.65;;;18.40;99.90;;;;;;5067611;28;20041;-66
2023/08/03 07:46:10;;;;;;;11.70;3.25;;;18.70;99.90;;;;;;5071480;28;20029;-65
2023/08/03 07:48:35;;;;;;;14.07;3.75;;;19.00;99.90;;;;;;5068398;28;20062;-65
2023/08/03 07:51:11;;;;;;;11.93;3.60;;;19.00;99.90;;;;;;5070119;28;20043;-66
2023/08/03 07:53:36;;;;;;;14.90;3.55;;;18.70;99.90;;;;;;5068291;28;20021;-66
2023/08/03 07:56:02;;;;;;;14.30;3.22;;;18.70;99.90;;;;;;5058190;28;20031;-66
2023/08/03 07:58:28;;;;;;;15.20;3.80;;;18.70;99.90;;;;;;5067181;28;20025;-66
2023/08/03 08:01:04;;;;;;;12.93;3.10;;;18.90;99.90;;;;;;5069696;28;20412;-66
2023/08/03 08:03:30;;;;;;;15.55;3.55;;;18.80;99.90;;;;;;5063193;28;20103;-66
2023/08/03 08:06:14;;;;;;;15.05;3.08;;;18.70;99.90;;;;;;5053793;28;20477;-63
2023/08/03 08:08:40;;;;;;;13.60;3.60;;;18.90;99.90;;;;;;5068170;28;20028;-64
2023/08/03 08:11:06;;;;;;;13.77;3.22;;;19.30;99.90;;;;;;5067884;28;20035;-63
2023/08/03 08:13:32;;;;;;;11.75;2.75;;;19.20;99.90;;;;;;5063865;28;20103;-63
2023/08/03 08:16:02;;;;;;;15.32;2.97;;;19.20;99.90;;;;;;5068268;28;20036;-63
2023/08/03 08:18:29;;;;;;;10.82;2.17;;;19.10;99.90;;;;;;5060263;28;20035;-63
2023/08/03 08:20:55;;;;;;;11.70;2.78;;;19.20;99.90;;;;;;5065845;28;20112;-63
2023/08/03 08:23:21;;;;;;;10.52;2.60;;;19.00;99.90;;;;;;5064673;28;20021;-63
2023/08/03 08:25:47;;;;;;;14.90;2.78;;;19.30;99.90;;;;;;5067808;28;20028;-63
2023/08/03 08:28:12;;;;;;;14.63;3.28;;;19.10;99.90;;;;;;5070278;28;20035;-64
2023/08/03 08:30:38;;;;;;;13.13;2.92;;;18.90;99.90;;;;;;5071105;28;20050;-64
2023/08/03 08:33:04;;;;;;;10.00;2.58;;;18.70;99.90;;;;;;5071805;28;20103;-63
2023/08/03 08:35:29;;;;;;;12.75;2.63;;;18.70;99.90;;;;;;5069208;28;20051;-63
2023/08/03 08:37:58;;;;;;;13.98;2.83;;;19.10;99.90;;;;;;5066365;28;20020;-64
2023/08/03 08:40:24;;;;;;;10.55;2.65;;;19.50;99.90;;;;;;5066030;28;20024;-63
2023/08/03 08:42:52;;;;;;;11.65;2.67;;;19.50;99.90;;;;;;5063844;28;20035;-64
2023/08/03 08:45:18;;;;;;;10.82;2.55;;;19.40;99.90;;;;;;5069855;28;20097;-64
2023/08/03 08:47:45;;;;;;;11.98;2.65;;;19.50;99.90;;;;;;5069618;28;20051;-63
2023/08/03 08:50:11;;;;;;;10.07;3.08;;;19.40;99.90;;;;;;5071242;28;20043;-64
2023/08/03 08:52:40;;;;;;;10.48;2.72;;;19.50;99.90;;;;;;5072229;28;20020;-63
2023/08/03 08:55:20;;;;;;;16.25;3.55;;;19.60;99.90;;;;;;5071982;28;20432;-63
2023/08/03 08:57:46;;;;;;;12.00;2.33;;;19.60;99.90;;;;;;5069388;28;20056;-63
2023/08/03 09:00:13;;;;;;;10.35;2.95;;;19.70;99.90;;;;;;5071950;28;20099;-63
2023/08/03 09:02:39;;;;;;;10.48;2.70;;;19.70;99.90;;;;;;5067900;28;20435;-63
2023/08/03 09:05:09;;;;;;;15.77;2.83;;;19.80;99.90;;;;;;5063622;28;20013;-64
2023/08/03 09:07:35;;;;;;;9.57;2.55;;;19.60;99.90;;;;;;5071737;28;20389;-64
2023/08/03 09:10:03;;;;;;;10.55;2.72;;;19.30;99.90;;;;;;5071489;28;20036;-64
2023/08/03 09:12:29;;;;;;;10.50;3.13;;;19.10;99.90;;;;;;5069224;28;20050;-64
2023/08/03 09:14:55;;;;;;;16.35;3.60;;;19.00;99.90;;;;;;5067021;28;20017;-64
2023/08/03 09:17:24;;;;;;;14.20;2.80;;;19.20;99.90;;;;;;5071795;28;20082;-64
2023/08/03 09:19:53;;;;;;;9.57;1.95;;;19.30;99.90;;;;;;5069040;28;20029;-65
2023/08/03 09:22:21;;;;;;;8.38;2.20;;;19.30;99.90;;;;;;5071090;28;20050;-65
2023/08/03 09:24:58;;;;;;;18.30;3.28;;;19.20;99.90;;;;;;5071589;28;20020;-62
2023/08/03 09:27:24;;;;;;;11.18;3.08;;;19.30;99.90;;;;;;5064446;28;20477;-66
2023/08/03 09:29:49;;;;;;;14.10;2.88;;;19.30;99.90;;;;;;5068240;28;20039;-66
2023/08/03 09:32:15;;;;;;;8.45;2.85;;;19.30;99.90;;;;;;5069348;28;20054;-66
2023/08/03 09:34:44;;;;;;;9.13;2.78;;;19.30;99.90;;;;;;5070764;28;20442;-66
2023/08/03 09:37:10;;;;;;;9.93;2.60;;;19.30;99.90;;;;;;5072456;28;20021;-67
2023/08/03 09:39:38;;;;;;;10.65;2.60;;;19.30;99.90;;;;;;5069985;28;20077;-66
2023/08/03 09:42:11;;;;;;;10.63;2.50;;;19.30;99.90;;;;;;5069311;28;20512;-66
2023/08/03 09:44:38;;;;;;;8.93;2.88;;;19.30;99.90;;;;;;5066797;28;20021;-66
2023/08/03 09:47:05;;;;;;;7.85;2.28;;;19.30;99.90;;;;;;5069829;28;20067;-66
2023/08/03 09:49:32;;;;;;;10.98;4.22;;;19.30;99.90;;;;;;5066008;28;20048;-66
2023/08/03 09:52:05;;;;;;;6.95;2.45;;;19.30;99.90;;;;;;5067457;28;20117;-66
2023/08/03 09:54:39;;;;;;;12.40;2.38;;;19.40;99.90;;;;;;5067264;28;20111;-66
2023/08/03 09:57:09;;;;;;;6.50;1.55;;;19.40;99.90;;;;;;5059769;28;20017;-66
2023/08/03 09:59:38;;;;;;;10.65;2.20;;;19.40;99.90;;;;;;5069081;28;20081;-66
2023/08/03 10:02:11;;;;;;;6.00;1.90;;;19.40;99.90;;;;;;5060539;28;20067;-65
2023/08/03 10:04:42;;;;;;;7.10;1.80;;;19.40;99.90;;;;;;5072859;28;20036;-66
2023/08/03 10:07:10;;;;;;;10.55;2.05;;;19.40;99.90;;;;;;5055119;28;20021;-67
2023/08/03 10:09:43;;;;;;;4.28;1.02;;;19.40;99.90;;;;;;5059963;28;20032;-66
2023/08/03 10:12:16;;;;;;;5.65;1.67;;;19.40;99.90;;;;;;5058590;28;20044;-66
2023/08/03 10:14:42;;;;;;;;;;;19.40;99.90;;;;;;5060970;28;20385;-67
2023/08/03 10:17:11;;;;;;;6.35;1.60;;;19.40;99.90;;;;;;5065267;28;20369;-66
2023/08/03 10:19:38;;;;;;;5.82;1.55;;;19.40;99.90;;;;;;5060716;28;20037;-66
2023/08/03 10:22:07;;;;;;;5.93;2.05;;;19.50;99.90;;;;;;5061831;28;20025;-67
2023/08/03 10:24:33;;;;;;;3.75;1.40;;;19.50;99.90;;;;;;5062822;28;20028;-66
2023/08/03 10:27:17;;;;;;;7.82;1.95;;;19.50;99.90;;;;;;5062354;28;20588;-66
2023/08/03 10:29:54;;;;;;;9.15;3.05;;;19.50;99.90;;;;;;5066333;28;20036;-66
2023/08/03 10:32:22;;;;;;;7.07;2.25;;;19.50;99.90;;;;;;5064360;28;20029;-65
2023/08/03 10:34:48;;;;;;;9.35;3.45;;;19.60;99.90;;;;;;5063898;28;20415;-65
2023/08/03 10:37:14;;;;;;;5.85;2.35;;;19.60;99.90;;;;;;5066099;28;20021;-65
2023/08/03 10:39:54;;;;;;;8.35;3.30;;;19.60;99.90;;;;;;5077452;28;20032;-66
2023/08/03 10:42:25;;;;;;;5.72;2.05;;;19.60;99.90;;;;;;5061919;28;20565;-65
2023/08/03 10:44:51;;;;;;;6.88;2.03;;;19.70;99.90;;;;;;5067628;28;20680;-65
2023/08/03 10:47:29;;;;;;;7.95;2.42;;;19.70;99.90;;;;;;5066798;28;20036;-65
2023/08/03 10:49:58;;;;;;;6.70;1.95;;;19.70;99.90;;;;;;5064084;28;20070;-65
2023/08/03 10:52:29;;;;;;;5.72;1.95;;;19.70;99.90;;;;;;5070564;28;20062;-64
2023/08/03 10:54:57;;;;;;;7.68;3.47;;;19.70;99.90;;;;;;5068045;28;20052;-66
2023/08/03 10:57:29;;;;;;;9.35;5.40;;;19.70;99.90;;;;;;5066297;28;20013;-66
2023/08/03 10:59:56;;;;;;;;;;;19.70;99.90;;;;;;5068223;28;20071;-66
2023/08/03 11:02:30;;;;;;;15.35;11.23;;;19.70;99.90;;;;;;5066833;28;20030;-65
2023/08/03 11:05:01;;;;;;;15.90;13.93;;;19.70;99.90;;;;;;5063454;28;20035;-65
2023/08/03 11:07:33;;;;;;;8.70;6.60;;;19.70;99.90;;;;;;5062293;28;20085;-65
2023/08/03 11:10:00;;;;;;;11.05;4.95;;;19.80;99.90;;;;;;5069334;28;20045;-65
2023/08/03 11:12:27;;;;;;;18.02;14.85;;;19.80;99.90;;;;;;5067397;28;20418;-64
2023/08/03 11:14:55;;;;;;;15.40;13.02;;;19.70;99.90;;;;;;5068228;28;20034;-65
2023/08/03 11:17:25;;;;;;;17.65;15.60;;;19.80;99.90;;;;;;5061035;28;20024;-66
2023/08/03 11:19:52;;;;;;;13.98;9.35;;;19.80;99.90;;;;;;5068148;28;20032;-65
2023/08/03 11:22:21;;;;;;;23.30;17.00;;;19.80;99.90;;;;;;5063523;28;20021;-66
2023/08/03 11:24:50;;;;;;;17.08;13.23;;;19.80;99.90;;;;;;5064136;28;20104;-66
2023/08/03 11:27:17;;;;;;;23.15;17.33;;;19.90;99.90;;;;;;5062879;28;20315;-66
2023/08/03 11:29:43;;;;;;;11.52;4.80;;;19.90;99.90;;;;;;5064071;28;20047;-66
2023/08/03 11:32:11;;;;;;;13.57;4.60;;;19.90;99.90;;;;;;5066849;28;20028;-66
2023/08/03 11:34:38;;;;;;;12.60;8.55;;;19.90;99.90;;;;;;5053424;28;20025;-65
2023/08/03 11:37:04;;;;;;;12.30;5.68;;;19.90;99.90;;;;;;5059280;28;20017;-66
2023/08/03 11:39:30;;;;;;;14.23;8.32;;;19.90;99.90;;;;;;5065772;28;20459;-66
2023/08/03 11:41:57;;;;;;;14.55;6.00;;;19.90;99.90;;;;;;5067928;28;21431;-66
2023/08/03 11:44:23;;;;;;;9.00;4.15;;;19.90;99.90;;;;;;5064482;28;20021;-66
2023/08/03 11:47:09;;;;;;;13.43;5.50;;;19.90;99.90;;;;;;5065898;28;20017;-66
2023/08/03 11:49:35;;;;;;;13.65;5.45;;;19.90;99.90;;;;;;5066630;28;20040;-66
2023/08/03 11:52:01;;;;;;;10.15;5.03;;;20.00;99.90;;;;;;5076159;28;20036;-65
2023/08/03 11:54:34;;;;;;;10.82;4.70;;;20.00;99.90;;;;;;5057221;28;20025;-66
2023/08/03 11:59:46;;;;;;;9.70;4.22;;;20.00;99.90;;;;;;5066823;28;20505;-66
2023/08/03 12:02:12;;;;;;;7.40;4.05;;;20.00;99.90;;;;;;5050608;28;20041;-66
2023/08/03 12:04:38;;;;;;;11.25;3.65;;;20.00;99.90;;;;;;5058780;28;20056;-65
2023/08/03 12:07:04;;;;;;;6.45;2.33;;;20.00;99.90;;;;;;5059712;28;20021;-66
2023/08/03 12:09:40;;;;;;;7.15;2.38;;;20.00;99.90;;;;;;5063492;28;20067;-65
2023/08/03 12:12:09;;;;;;;9.18;2.88;;;20.00;99.90;;;;;;5063838;28;20075;-66
2023/08/03 12:14:35;;;;;;;7.00;2.30;;;20.00;99.90;;;;;;5061548;28;20025;-65
2023/08/03 12:17:01;;;;;;;8.80;2.80;;;20.00;99.90;;;;;;5070792;28;20369;-66
2023/08/03 12:19:33;;;;;;;15.02;3.22;;;20.00;99.90;;;;;;5065662;28;20503;-66
2023/08/03 12:22:00;;;;;;;;;;;20.10;99.90;;;;;;5065176;28;20024;-66
2023/08/03 12:24:25;;;;;;;10.38;3.03;;;20.10;99.90;;;;;;5063765;28;19915;-66
2023/08/03 12:26:51;;;;;;;13.57;2.95;;;20.10;99.90;;;;;;5066241;28;20029;-66
2023/08/03 12:29:17;;;;;;;8.75;3.13;;;20.10;99.90;;;;;;5066287;28;20431;-65
2023/08/03 12:31:43;;;;;;;11.85;2.75;;;20.10;99.90;;;;;;5065158;28;20020;-65
2023/08/03 12:34:08;;;;;;;12.18;2.88;;;20.10;99.90;;;;;;5064925;28;20048;-66
2023/08/03 12:36:34;;;;;;;9.65;2.67;;;20.10;99.90;;;;;;5069672;28;20458;-66
2023/08/03 12:39:00;;;;;;;10.63;2.90;;;20.20;99.90;;;;;;5068945;28;20225;-66
2023/08/03 12:41:25;;;;;;;10.80;2.83;;;20.20;99.90;;;;;;5066898;28;20032;-66